Time;durP1;ratioP1;P1;durP2;ratioP2;P2;SDS_P1;SDS_P2;PMS_P1;PMS_P2;Temp;Humidity;BMP_temperature;BMP_pressure;BME280_temperature;BME280_humidity;BME280_pressure;Samples;Min_cycle;Max_cycle;Signal;HPM_P1;HPM_P2
2023/01/14 00:02:09;;;;;;;22.27;4.88;;;;;;;5.85;100.00;101463.72;5343607;27;20122;-84
2023/01/14 00:04:43;;;;;;;22.70;5.18;;;;;;;5.85;100.00;101463.72;5343857;27;20422;-84
2023/01/14 00:07:16;;;;;;;20.33;3.85;;;;;;;5.82;100.00;101463.06;5337018;27;20019;-84
2023/01/14 00:09:47;;;;;;;22.63;4.70;;;;;;;5.82;100.00;101471.88;5340769;27;20028;-83
2023/01/14 00:12:20;;;;;;;18.45;4.43;;;;;;;5.79;100.00;101479.19;5342234;27;20404;-83
2023/01/14 00:14:51;;;;;;;23.20;4.63;;;;;;;5.82;100.00;101482.47;5342270;27;20430;-83
2023/01/14 00:17:22;;;;;;;20.33;3.97;;;;;;;5.76;100.00;101474.91;5343132;27;20035;-83
2023/01/14 00:19:54;;;;;;;22.58;4.43;;;;;;;5.72;100.00;101469.91;5338808;27;20024;-83
2023/01/14 00:22:28;;;;;;;24.33;4.43;;;;;;;5.77;100.00;101479.28;5342423;27;20039;-83
2023/01/14 00:24:59;;;;;;;23.48;4.53;;;;;;;5.75;100.00;101477.66;5362898;27;20023;-83
2023/01/14 00:27:31;;;;;;;20.70;5.05;;;;;;;5.77;100.00;101465.19;5361692;27;20030;-83
2023/01/14 00:30:02;;;;;;;22.77;5.18;;;;;;;5.72;100.00;101468.13;5361986;27;20068;-83
2023/01/14 00:32:34;;;;;;;21.83;5.90;;;;;;;5.75;100.00;101467.94;5367240;27;20108;-83
2023/01/14 00:35:05;;;;;;;24.42;4.53;;;;;;;5.71;100.00;101463.75;5359288;27;20034;-83
2023/01/14 00:37:36;;;;;;;23.25;4.57;;;;;;;5.71;100.00;101463.75;5359894;27;20501;-84
2023/01/14 00:40:08;;;;;;;22.13;4.25;;;;;;;5.56;100.00;101454.97;5356339;27;20024;-84
2023/01/14 00:42:40;;;;;;;20.05;3.70;;;;;;;5.58;100.00;101458.38;5367989;27;20019;-83
2023/01/14 00:45:11;;;;;;;22.83;4.72;;;;;;;5.60;100.00;101469.72;5371452;27;20093;-82
2023/01/14 00:47:42;;;;;;;23.17;4.18;;;;;;;5.64;100.00;101465.09;5369054;27;20064;-83
2023/01/14 00:50:14;;;;;;;31.40;6.50;;;;;;;5.56;100.00;101470.88;5363920;27;20024;-83
2023/01/14 00:52:45;;;;;;;25.77;6.05;;;;;;;5.57;100.00;101471.72;5358580;27;20065;-83
2023/01/14 00:55:16;;;;;;;31.55;5.18;;;;;;;5.58;100.00;101481.34;5362798;27;20305;-83
2023/01/14 00:57:48;;;;;;;28.35;5.13;;;;;;;5.58;100.00;101484.00;5353695;27;20019;-82
2023/01/14 01:00:19;;;;;;;34.08;5.95;;;;;;;5.59;100.00;101469.81;5357868;27;20039;-82
2023/01/14 01:02:50;;;;;;;26.20;5.40;;;;;;;5.63;100.00;101474.81;5360120;27;20023;-82
2023/01/14 01:05:22;;;;;;;31.15;6.10;;;;;;;5.59;100.00;101478.63;5357563;27;20030;-83
2023/01/14 01:07:53;;;;;;;40.03;6.78;;;;;;;5.54;100.00;101474.53;5356787;27;20023;-83
2023/01/14 01:10:24;;;;;;;30.83;5.80;;;;;;;5.55;100.00;101485.03;5364935;27;20094;-82
2023/01/14 01:12:56;;;;;;;26.40;6.57;;;;;;;5.57;100.00;101483.13;5360630;27;20035;-83
2023/01/14 01:15:27;;;;;;;39.30;6.53;;;;;;;5.58;100.00;101482.19;5354222;27;20110;-83
2023/01/14 01:17:59;;;;;;;32.10;6.18;;;;;;;5.57;100.00;101483.13;5363142;27;20031;-83
2023/01/14 01:20:31;;;;;;;28.65;5.25;;;;;;;5.51;100.00;101477.38;5358919;27;20428;-82
2023/01/14 01:23:03;;;;;;;31.63;6.68;;;;;;;5.52;100.00;101477.28;5313502;27;20381;-83
2023/01/14 01:25:35;;;;;;;32.15;5.35;;;;;;;5.51;100.00;101483.53;5336380;27;20027;-83
2023/01/14 01:28:07;;;;;;;35.30;6.28;;;;;;;5.55;100.00;101477.09;5336520;27;20074;-83
2023/01/14 01:30:38;;;;;;;33.20;9.02;;;;;;;5.47;100.00;101480.22;5342775;27;20078;-82
2023/01/14 01:33:09;;;;;;;32.50;5.72;;;;;;;5.45;100.00;101482.09;5333561;27;20545;-82
2023/01/14 01:35:40;;;;;;;29.85;5.20;;;;;;;5.47;100.00;101476.72;5338139;27;20028;-83
2023/01/14 01:38:12;;;;;;;28.83;5.22;;;;;;;5.42;100.00;101479.66;5314387;27;20034;-83
2023/01/14 01:40:43;;;;;;;31.50;5.20;;;;;;;5.43;100.00;101468.09;5340247;27;20561;-83
2023/01/14 01:43:14;;;;;;;33.40;5.85;;;;;;;5.41;100.00;101477.94;5340463;27;20020;-83
2023/01/14 01:45:47;;;;;;;30.10;6.00;;;;;;;5.42;100.00;101477.00;5344476;27;20057;-83
2023/01/14 01:48:32;;;;;;;30.02;5.18;;;;;;;5.38;100.00;101486.06;5324521;27;20020;-83
2023/01/14 01:51:12;;;;;;;33.38;5.88;;;;;;;5.45;100.00;101481.22;5325580;27;21065;-84
2023/01/14 01:53:48;;;;;;;31.80;6.00;;;;;;;5.41;100.00;101472.63;5314289;27;20059;-83
2023/01/14 01:56:25;;;;;;;43.90;6.93;;;;;;;5.43;100.00;101477.84;5333595;27;20020;-82
2023/01/14 01:58:57;;;;;;;39.38;6.35;;;;;;;5.38;100.00;101480.78;5339814;27;20034;-83
2023/01/14 02:01:29;;;;;;;30.20;6.05;;;;;;;5.36;100.00;101481.81;5319140;27;20012;-84
2023/01/14 02:04:00;;;;;;;39.45;6.55;;;;;;;5.29;100.00;101476.03;5309958;27;20038;-84
2023/01/14 02:06:32;;;;;;;37.80;5.95;;;;;;;5.36;100.00;101458.00;5334954;27;20039;-84
2023/01/14 02:09:04;;;;;;;36.67;6.75;;;;;;;5.31;100.00;101458.25;5313689;27;20438;-83
2023/01/14 02:11:38;;;;;;;32.90;5.38;;;;;;;5.26;100.00;101455.06;5336491;27;20020;-83
2023/01/14 02:14:32;;;;;;;36.70;6.68;;;;;;;5.21;100.00;101459.78;5338844;27;20039;-83
2023/01/14 02:17:33;;;;;;;42.85;6.85;;;;;;;5.20;100.00;101445.69;5338226;27;20020;-83
2023/01/14 02:20:18;;;;;;;29.45;5.72;;;;;;;5.26;100.00;101431.28;5336316;27;20024;-83
2023/01/14 02:22:55;;;;;;;34.25;6.75;;;;;;;5.15;100.00;101425.75;5339661;27;20490;-83
2023/01/14 02:25:29;;;;;;;31.95;5.57;;;;;;;5.18;100.00;101410.56;5334628;27;20045;-83
2023/01/14 02:28:27;;;;;;;47.58;7.07;;;;;;;5.22;100.00;101414.72;5341346;27;20490;-83
2023/01/14 02:31:14;;;;;;;46.22;6.78;;;;;;;5.22;100.00;101405.94;5332127;27;20030;-83
2023/01/14 02:34:01;;;;;;;31.70;5.57;;;;;;;5.16;100.00;101396.59;5337576;27;20035;-84
2023/01/14 02:36:40;;;;;;;;;;;;;;;5.23;100.00;101389.13;5338418;27;20036;-84
2023/01/14 02:39:29;;;;;;;35.13;5.70;;;;;;;5.11;100.00;101382.78;5343180;27;20227;-84
2023/01/14 02:45:28;;;;;;;38.00;6.90;;;;;;;5.01;100.00;101379.84;5299745;27;20123;-84
2023/01/14 02:48:02;;;;;;;39.80;5.95;;;;;;;5.02;100.00;101376.28;5340740;27;20023;-84
2023/01/14 02:50:35;;;;;;;29.70;5.60;;;;;;;5.06;100.00;101367.19;5344392;27;20492;-83
2023/01/14 02:53:11;;;;;;;27.92;5.97;;;;;;;5.09;100.00;101364.38;5333870;27;20032;-84
2023/01/14 02:55:43;;;;;;;37.45;5.40;;;;;;;5.12;100.00;101371.28;5328099;27;20028;-84
2023/01/14 02:58:45;;;;;;;49.60;6.68;;;;;;;5.19;100.00;101362.03;5312603;27;20066;-84
2023/01/14 03:01:28;;;;;;;34.20;5.72;;;;;;;5.17;100.00;101369.22;5337765;27;20024;-84
2023/01/14 03:04:18;;;;;;;35.75;6.68;;;;;;;5.19;100.00;101364.66;5345321;27;20463;-84
2023/01/14 03:06:49;;;;;;;43.08;6.60;;;;;;;5.20;100.00;101370.78;5339240;27;20036;-84
2023/01/14 03:09:30;;;;;;;31.52;6.22;;;;;;;5.19;100.00;101359.38;5334500;27;20024;-84
2023/01/14 03:12:21;;;;;;;30.55;5.95;;;;;;;5.19;100.00;101358.50;5351542;27;20079;-83
2023/01/14 03:15:01;;;;;;;42.17;6.47;;;;;;;5.18;100.00;101344.44;5355682;27;20102;-83
2023/01/14 03:17:41;;;;;;;41.40;6.28;;;;;;;5.14;100.00;101332.38;5364585;27;20053;-84
2023/01/14 03:20:39;;;;;;;38.40;5.22;;;;;;;5.20;100.00;101329.31;5362946;27;20153;-84
2023/01/14 03:23:13;;;;;;;;;;;;;;;5.28;100.00;101331.50;5350345;27;20052;-84
2023/01/14 03:25:48;;;;;;;35.10;6.15;;;;;;;5.28;100.00;101327.06;5344382;27;19916;-84
2023/01/14 03:28:26;;;;;;;34.88;5.40;;;;;;;5.29;100.00;101333.19;5342216;27;21858;-84
2023/01/14 03:31:12;;;;;;;46.17;7.25;;;;;;;5.39;100.00;101326.38;5340693;27;20119;-84
2023/01/14 03:33:50;;;;;;;27.60;5.03;;;;;;;5.42;100.00;101320.91;5341162;27;20076;-85
2023/01/14 03:36:23;;;;;;;36.33;6.30;;;;;;;5.52;100.00;101315.00;5345375;27;20016;-84
2023/01/14 03:39:01;;;;;;;28.60;5.50;;;;;;;5.54;100.00;101313.97;5342149;27;20022;-84
2023/01/14 03:44:51;;;;;;;28.50;5.72;;;;;;;5.66;100.00;101313.19;5336542;27;20419;-84
2023/01/14 03:47:26;;;;;;;30.38;5.38;;;;;;;5.68;100.00;101321.88;5312012;27;20024;-84
2023/01/14 03:50:00;;;;;;;25.75;5.43;;;;;;;5.74;100.00;101310.03;5334457;27;20485;-84
2023/01/14 03:52:53;;;;;;;30.13;6.57;;;;;;;5.76;100.00;101308.13;5337592;27;20028;-83
2023/01/14 03:55:33;;;;;;;36.83;5.85;;;;;;;5.75;100.00;101295.88;5339101;27;20051;-84
2023/01/14 03:58:19;;;;;;;31.55;6.07;;;;;;;5.82;100.00;101291.00;5339435;27;20024;-84
2023/01/14 04:00:57;;;;;;;30.58;5.28;;;;;;;5.79;100.00;101297.34;5337655;27;20504;-85
2023/01/14 04:03:28;;;;;;;34.13;6.13;;;;;;;5.72;100.00;101289.94;5342309;27;20028;-84
2023/01/14 04:06:00;;;;;;;33.78;4.85;;;;;;;5.78;100.00;101292.16;5344642;27;20426;-84
2023/01/14 04:08:32;;;;;;;29.13;5.97;;;;;;;5.75;100.00;101273.81;5321091;27;20046;-84
2023/01/14 04:11:03;;;;;;;31.58;4.90;;;;;;;5.74;100.00;101272.13;5339536;27;20020;-84
2023/01/14 04:16:24;;;;;;;23.80;4.60;;;;;;;5.71;100.00;101265.22;5337773;27;20039;-83
2023/01/14 04:18:56;;;;;;;24.30;4.57;;;;;;;5.68;100.00;101253.06;5342115;27;20058;-84
2023/01/14 04:21:27;;;;;;;34.92;6.07;;;;;;;5.63;100.00;101249.88;5337296;27;20869;-84
2023/01/14 04:23:58;;;;;;;38.03;5.40;;;;;;;5.61;100.00;101237.66;5316445;27;20027;-85
2023/01/14 04:26:30;;;;;;;27.27;5.22;;;;;;;5.55;100.00;101238.09;5340568;27;20039;-85
2023/01/14 04:29:01;;;;;;;27.60;5.32;;;;;;;5.50;100.00;101225.13;5343058;27;20460;-84
2023/01/14 04:31:32;;;;;;;29.40;4.70;;;;;;;5.48;100.00;101219.09;5339092;27;20039;-84
2023/01/14 04:34:04;;;;;;;24.92;4.32;;;;;;;5.47;100.00;101225.38;5337696;27;20040;-85
2023/01/14 04:36:35;;;;;;;32.70;6.05;;;;;;;5.44;100.00;101221.09;5318306;27;20031;-84
2023/01/14 04:39:06;;;;;;;32.90;5.20;;;;;;;5.45;100.00;101220.16;5336946;27;20062;-84
2023/01/14 04:44:27;;;;;;;29.38;5.22;;;;;;;5.35;100.00;101204.97;5337715;27;20492;-83
2023/01/14 04:46:59;;;;;;;31.10;5.95;;;;;;;5.32;100.00;101208.66;5339739;27;20111;-83
2023/01/14 04:49:30;;;;;;;28.30;4.68;;;;;;;5.29;100.00;101204.44;5338032;27;20683;-83
2023/01/14 04:52:01;;;;;;;27.13;4.75;;;;;;;5.34;100.00;101209.41;5339065;27;20023;-83
2023/01/14 04:54:32;;;;;;;28.42;4.60;;;;;;;5.29;100.00;101203.56;5336305;27;20088;-82
2023/01/14 04:57:04;;;;;;;26.25;5.35;;;;;;;5.35;100.00;101205.84;5338232;27;20114;-82
2023/01/14 04:59:35;;;;;;;32.08;5.07;;;;;;;5.36;100.00;101202.22;5322750;27;20532;-83
2023/01/14 05:02:06;;;;;;;27.00;5.18;;;;;;;5.37;100.00;101195.16;5339737;27;20024;-82
2023/01/14 05:04:38;;;;;;;22.98;4.72;;;;;;;5.34;100.00;101203.28;5337081;27;20870;-83
2023/01/14 05:07:09;;;;;;;26.42;3.95;;;;;;;5.35;100.00;101182.03;5338683;27;20039;-84
2023/01/14 05:09:40;;;;;;;29.60;5.40;;;;;;;5.39;100.00;101178.22;5318920;27;20031;-84
2023/01/14 05:12:12;;;;;;;30.08;4.63;;;;;;;5.37;100.00;101166.06;5337767;27;20031;-83
2023/01/14 05:14:43;;;;;;;27.80;4.47;;;;;;;5.41;100.00;101178.97;5332618;27;32948;-84
2023/01/14 05:17:14;;;;;;;23.92;4.38;;;;;;;5.46;100.00;101168.09;5336792;27;20456;-84
2023/01/14 05:19:45;;;;;;;27.08;4.85;;;;;;;5.49;100.00;101166.09;5336908;27;20028;-84
2023/01/14 05:22:17;;;;;;;26.30;6.10;;;;;;;5.49;100.00;101155.50;5338344;27;20047;-85
2023/01/14 05:24:48;;;;;;;21.38;4.38;;;;;;;5.53;100.00;101144.72;5313864;27;20036;-85
2023/01/14 05:27:19;;;;;;;29.10;4.35;;;;;;;5.54;100.00;101146.41;5337633;27;20050;-85
2023/01/14 05:29:50;;;;;;;25.05;5.72;;;;;;;5.61;100.00;101139.75;5342024;27;20038;-85
2023/01/14 05:32:22;;;;;;;20.80;3.75;;;;;;;5.59;100.00;101116.06;5347039;27;20054;-85
2023/01/14 05:34:54;;;;;;;26.67;5.03;;;;;;;5.64;100.00;101115.72;5340748;27;20088;-85
2023/01/14 05:37:25;;;;;;;23.15;4.30;;;;;;;5.66;100.00;101117.34;5346075;27;20039;-84
2023/01/14 05:39:57;;;;;;;20.60;4.22;;;;;;;5.74;100.00;101100.91;5322385;27;20039;-84
2023/01/14 05:48:09;;;;;;;24.73;5.07;;;;;;;5.86;100.00;101076.25;5351084;27;20012;-84
2023/01/14 05:50:41;;;;;;;19.23;4.60;;;;;;;5.87;100.00;101064.72;5366622;27;20071;-84
2023/01/14 05:53:12;;;;;;;21.65;3.97;;;;;;;5.93;100.00;101062.59;5343944;27;20165;-82
2023/01/14 05:55:44;;;;;;;26.60;4.40;;;;;;;5.94;100.00;101065.13;5335728;27;20443;-84
2023/01/14 05:58:16;;;;;;;21.60;4.07;;;;;;;5.96;100.00;101051.81;5330375;27;20020;-83
2023/01/14 06:06:32;;;;;;;23.95;4.40;;;;;;;6.02;100.00;101032.84;5330888;27;20117;-83
2023/01/14 06:09:06;;;;;;;20.50;4.77;;;;;;;6.06;100.00;101047.56;5345591;27;20019;-83
2023/01/14 06:12:01;;;;;;;22.55;4.38;;;;;;;6.06;100.00;101048.41;5324517;27;20044;-83
2023/01/14 06:14:33;;;;;;;22.08;4.68;;;;;;;6.05;100.00;101027.34;5335705;27;20534;-83
2023/01/14 06:17:08;;;;;;;23.77;3.60;;;;;;;6.01;100.00;101018.78;5327780;27;20084;-83
2023/01/14 06:19:40;;;;;;;22.60;4.10;;;;;;;5.99;100.00;101012.72;5341579;27;20027;-83
2023/01/14 06:22:11;;;;;;;28.35;4.43;;;;;;;5.92;100.00;101005.31;5341352;27;20400;-83
2023/01/14 06:24:42;;;;;;;20.75;3.63;;;;;;;5.88;100.00;100992.28;5337438;27;20758;-82
2023/01/14 06:27:13;;;;;;;22.02;4.35;;;;;;;5.90;100.00;101004.56;5341178;27;20032;-82
2023/01/14 06:29:45;;;;;;;22.98;4.60;;;;;;;5.84;100.00;100979.38;5332410;27;20035;-81
2023/01/14 06:32:16;;;;;;;27.02;3.80;;;;;;;5.84;100.00;100971.44;5335503;27;20107;-82
2023/01/14 06:34:50;;;;;;;23.83;5.05;;;;;;;5.83;100.00;100980.31;5323141;27;20082;-83
2023/01/14 06:37:21;;;;;;;19.55;4.25;;;;;;;5.79;100.00;100955.88;5322843;27;20110;-83
2023/01/14 06:39:52;;;;;;;29.33;5.28;;;;;;;5.82;100.00;100954.78;5345991;27;20049;-83
2023/01/14 06:42:24;;;;;;;16.75;3.80;;;;;;;5.81;100.00;100953.94;5337999;27;20031;-82
2023/01/14 06:44:55;;;;;;;27.65;4.13;;;;;;;5.83;100.00;100953.84;5341962;27;20039;-82
2023/01/14 06:47:26;;;;;;;24.95;4.80;;;;;;;5.83;100.00;100946.75;5317839;27;20657;-83
2023/01/14 06:49:57;;;;;;;23.67;4.88;;;;;;;5.84;100.00;100934.38;5342186;27;20059;-84
2023/01/14 06:52:29;;;;;;;27.60;4.00;;;;;;;5.79;100.00;100924.09;5341378;27;20110;-87
2023/01/14 06:55:00;;;;;;;23.95;4.43;;;;;;;5.84;100.00;100931.72;5341471;27;20439;-84
2023/01/14 06:57:31;;;;;;;23.17;5.25;;;;;;;5.85;100.00;100923.66;5339988;27;20066;-84
2023/01/14 07:00:04;;;;;;;22.52;4.00;;;;;;;5.85;100.00;100905.13;5334893;27;20020;-83
2023/01/14 07:02:35;;;;;;;24.17;4.63;;;;;;;5.80;100.00;100895.81;5344214;27;20035;-82
2023/01/14 07:05:07;;;;;;;20.23;5.15;;;;;;;5.87;100.00;100915.59;5337920;27;20020;-83
2023/01/14 07:07:38;;;;;;;23.35;4.10;;;;;;;5.87;100.00;100910.31;5348968;27;20042;-83
2023/01/14 07:10:09;;;;;;;28.58;4.10;;;;;;;5.87;100.00;100890.00;5346313;27;20026;-83
2023/01/14 07:12:48;;;;;;;17.38;3.78;;;;;;;5.87;100.00;100879.41;5344507;27;20521;-83
2023/01/14 07:15:20;;;;;;;21.23;4.07;;;;;;;5.87;100.00;100881.19;5345319;27;20024;-82
2023/01/14 07:17:51;;;;;;;22.25;4.90;;;;;;;5.88;100.00;100869.66;5345755;27;20102;-83
2023/01/14 07:20:23;;;;;;;23.95;3.85;;;;;;;5.88;100.00;100841.38;5346338;27;20116;-82
2023/01/14 07:22:54;;;;;;;21.33;4.32;;;;;;;5.90;100.00;100838.63;5343572;27;20048;-82
2023/01/14 07:25:26;;;;;;;25.85;4.13;;;;;;;5.94;100.00;100836.59;5346195;27;20104;-82
2023/01/14 07:27:57;;;;;;;20.25;3.83;;;;;;;5.94;100.00;100836.59;5344692;27;20356;-82
2023/01/14 07:30:28;;;;;;;21.70;5.50;;;;;;;5.91;100.00;100845.59;5346589;27;20019;-83
2023/01/14 07:33:00;;;;;;;21.10;4.10;;;;;;;5.95;100.00;100844.41;5330494;27;20396;-83
2023/01/14 07:35:31;;;;;;;23.23;5.72;;;;;;;5.97;100.00;100831.94;5347026;27;20088;-83
2023/01/14 07:38:02;;;;;;;14.90;3.58;;;;;;;6.01;100.00;100816.66;5333303;27;20149;-83
2023/01/14 07:40:34;;;;;;;23.23;4.68;;;;;;;5.99;100.00;100813.28;5332451;27;20543;-83
2023/01/14 07:43:05;;;;;;;20.08;4.40;;;;;;;6.00;100.00;100801.75;5340751;27;20372;-83
2023/01/14 07:45:36;;;;;;;23.40;4.72;;;;;;;6.05;100.00;100799.63;5349794;27;20097;-83
2023/01/14 07:48:11;;;;;;;24.88;4.40;;;;;;;6.02;100.00;100776.84;5348610;27;20028;-83
2023/01/14 07:50:42;;;;;;;19.08;4.50;;;;;;;6.07;100.00;100789.75;5346940;27;20081;-84
2023/01/14 07:53:13;;;;;;;19.17;5.13;;;;;;;6.11;100.00;100774.47;5346117;27;20019;-84
2023/01/14 07:55:44;;;;;;;19.10;4.70;;;;;;;6.12;100.00;100757.59;5328100;27;20345;-84
2023/01/14 07:58:17;;;;;;;16.83;4.22;;;;;;;6.12;100.00;100749.66;5343184;27;20019;-84
2023/01/14 08:00:48;;;;;;;14.80;4.97;;;;;;;6.14;100.00;100734.53;5324107;27;20043;-84
2023/01/14 08:03:21;;;;;;;19.05;4.60;;;;;;;6.18;100.00;100744.75;5330351;27;20024;-84
2023/01/14 08:05:53;;;;;;;22.60;4.80;;;;;;;6.20;100.00;100734.03;5348795;27;20031;-84
2023/01/14 08:08:24;;;;;;;19.00;4.55;;;;;;;6.21;100.00;100746.34;5348385;27;20080;-84
2023/01/14 08:10:59;;;;;;;12.80;4.45;;;;;;;6.27;100.00;100697.34;5350631;27;20084;-83
2023/01/14 08:13:31;;;;;;;13.73;4.15;;;;;;;6.27;100.00;100698.19;5339568;27;20039;-84
2023/01/14 08:16:03;;;;;;;20.88;3.83;;;;;;;6.28;100.00;100685.78;5346652;28;20032;-85
2023/01/14 08:18:37;;;;;;;15.18;4.13;;;;;;;6.30;100.00;100690.00;5353584;27;20073;-84
2023/01/14 08:21:10;;;;;;;13.50;3.85;;;;;;;6.32;100.00;100692.53;5355735;27;20100;-84
2023/01/14 08:23:41;;;;;;;13.00;3.90;;;;;;;6.37;100.00;100661.22;5340860;27;20028;-84
2023/01/14 08:26:13;;;;;;;10.38;3.83;;;;;;;6.35;100.00;100669.28;5340069;27;20073;-84
2023/01/14 08:28:44;;;;;;;9.07;3.47;;;;;;;6.43;100.00;100660.72;5340963;27;20035;-85
2023/01/14 08:31:16;;;;;;;8.55;4.03;;;;;;;6.48;100.00;100644.50;5327824;28;20109;-85
2023/01/14 08:33:48;;;;;;;10.15;3.50;;;;;;;6.51;100.00;100644.25;5337823;27;20396;-85
2023/01/14 08:36:19;;;;;;;19.10;3.42;;;;;;;6.57;100.00;100630.50;5349529;27;20112;-84
2023/01/14 08:38:52;;;;;;;8.45;2.65;;;;;;;6.56;100.00;100619.06;5328974;27;20046;-85
2023/01/14 08:41:24;;;;;;;10.30;3.30;;;;;;;6.55;100.00;100605.94;5326184;27;20118;-84
2023/01/14 08:43:56;;;;;;;9.23;2.65;;;;;;;6.58;100.00;100595.09;5341506;27;20028;-84
2023/01/14 08:46:27;;;;;;;10.75;2.63;;;;;;;6.60;100.00;100598.47;5345735;27;20488;-84
2023/01/14 08:48:59;;;;;;;10.57;3.00;;;;;;;6.63;100.00;100596.41;5343645;27;20051;-84
2023/01/14 08:51:30;;;;;;;9.55;2.50;;;;;;;6.66;100.00;100591.81;5342639;27;20074;-84
2023/01/14 08:54:02;;;;;;;9.85;3.50;;;;;;;6.66;100.00;100579.41;5343456;27;20042;-85
2023/01/14 08:56:33;;;;;;;11.75;3.55;;;;;;;6.72;100.00;100573.63;5345693;27;20451;-84
2023/01/14 08:59:05;;;;;;;5.82;2.60;;;;;;;6.73;100.00;100564.72;5348035;27;20031;-84
2023/01/14 09:01:36;;;;;;;11.80;2.65;;;;;;;6.73;100.00;100542.66;5333016;27;20020;-84
2023/01/14 09:04:07;;;;;;;7.60;2.78;;;;;;;6.76;100.00;100542.41;5344009;27;20026;-84
2023/01/14 09:18:15;;;;;;;7.40;2.58;;;;;;;6.86;100.00;100498.28;5348289;27;20051;-84
2023/01/14 09:20:47;;;;;;;13.20;2.90;;;;;;;6.95;100.00;100500.16;5348065;27;20121;-84
2023/01/14 09:23:19;;;;;;;13.07;2.88;;;;;;;6.95;100.00;100494.84;5317278;27;20027;-84
2023/01/14 09:25:50;;;;;;;15.07;3.55;;;;;;;6.96;100.00;100485.06;5312697;27;20028;-82
2023/01/14 09:28:21;;;;;;;15.57;4.07;;;;;;;6.98;100.00;100472.56;5344907;27;20032;-82
2023/01/14 09:30:53;;;;;;;8.90;2.60;;;;;;;7.03;100.00;100474.81;5323711;27;20388;-83
2023/01/14 09:33:24;;;;;;;13.07;3.15;;;;;;;7.06;100.00;100446.22;5327060;28;20050;-83
2023/01/14 09:35:59;;;;;;;12.07;2.67;;;;;;;7.07;100.00;100453.22;5319740;27;20023;-83
2023/01/14 09:38:30;;;;;;;4.70;2.58;;;;;;;7.06;100.00;100445.38;5329836;27;20404;-83
2023/01/14 09:41:02;;;;;;;9.38;2.67;;;;;;;7.05;100.00;100439.25;5329633;27;20027;-83
2023/01/14 09:43:33;;;;;;;11.18;3.05;;;;;;;7.07;100.00;100434.66;5347721;27;20019;-84
2023/01/14 09:46:10;;;;;;;12.45;3.50;;;;;;;7.10;100.00;100418.47;5328513;27;20084;-83
2023/01/14 09:48:42;;;;;;;9.27;3.03;;;;;;;7.10;100.00;100425.56;5347038;27;20451;-84
2023/01/14 09:51:41;;;;;;;9.40;3.08;;;;;;;7.13;100.00;100410.25;5325581;27;20118;-84
2023/01/14 09:54:22;;;;;;;13.65;3.10;;;;;;;7.21;100.00;100419.38;5328287;27;20032;-83
2023/01/14 09:57:19;;;;;;;11.25;3.00;;;;;;;7.27;100.00;100408.22;5327122;27;20471;-83
2023/01/14 10:00:26;;;;;;;13.95;4.28;;;;;;;7.27;100.00;100410.88;5343228;27;20023;-83
2023/01/14 10:03:00;;;;;;;13.73;3.13;;;;;;;7.31;100.00;100397.22;5307751;27;20032;-84
2023/01/14 10:05:33;;;;;;;11.60;3.08;;;;;;;7.34;100.00;100382.84;5335909;27;20031;-84
2023/01/14 10:08:12;;;;;;;12.40;3.13;;;;;;;7.39;100.00;100378.81;5332457;27;20038;-84
2023/01/14 10:10:46;;;;;;;11.43;3.33;;;;;;;7.42;100.00;100387.50;5325571;28;20476;-84
2023/01/14 10:13:34;;;;;;;16.77;3.28;;;;;;;7.47;100.00;100359.59;5321568;27;20505;-84
2023/01/14 10:16:17;;;;;;;8.95;3.17;;;;;;;7.51;100.00;100328.31;5325780;28;20140;-84
2023/01/14 10:18:55;;;;;;;13.63;3.53;;;;;;;7.51;100.00;100323.84;5336957;27;20027;-84
2023/01/14 10:21:51;;;;;;;14.02;3.33;;;;;;;7.60;100.00;100340.75;5346734;27;20040;-84
2023/01/14 10:24:22;;;;;;;11.65;3.55;;;;;;;7.60;100.00;100338.13;5306486;28;20032;-84
2023/01/14 10:26:53;;;;;;;11.45;2.85;;;;;;;7.70;100.00;100312.44;5326304;28;20035;-84
2023/01/14 10:29:26;;;;;;;12.23;3.75;;;;;;;7.72;100.00;100312.31;5329071;27;20008;-84
2023/01/14 10:32:00;;;;;;;13.55;3.42;;;;;;;7.74;100.00;100299.72;5330334;27;20019;-83
2023/01/14 10:34:42;;;;;;;10.02;3.10;;;;;;;7.85;100.00;100302.25;5336357;27;20211;-84
2023/01/14 10:37:14;;;;;;;9.50;2.55;;;;;;;7.89;100.00;100332.03;5353827;27;20080;-83
2023/01/14 10:39:51;;;;;;;9.88;2.58;;;;;;;7.96;100.00;100277.41;5348294;27;20023;-83
2023/01/14 10:42:29;;;;;;;8.52;2.75;;;;;;;7.96;100.00;100282.72;5329303;27;20059;-82
2023/01/14 10:45:00;;;;;;;11.38;2.88;;;;;;;8.00;100.00;100238.13;5329383;27;20039;-83
2023/01/14 10:47:33;;;;;;;10.38;2.97;;;;;;;7.99;100.00;100245.22;5349673;27;20012;-81
2023/01/14 10:50:16;;;;;;;9.45;2.88;;;;;;;8.08;100.00;100243.53;5352239;27;20019;-81
2023/01/14 10:52:47;;;;;;;7.53;2.40;;;;;;;8.13;100.00;100230.69;5351476;27;20018;-82
2023/01/14 10:55:28;;;;;;;7.50;2.17;;;;;;;8.18;100.00;100233.75;5342747;27;20028;-83
2023/01/14 10:58:21;;;;;;;9.70;2.70;;;;;;;8.20;100.00;100231.78;5339772;27;20024;-83
2023/01/14 11:01:00;;;;;;;6.88;2.30;;;;;;;8.24;100.00;100213.75;5345981;27;20404;-82
2023/01/14 11:03:39;;;;;;;6.47;1.90;;;;;;;8.26;100.00;100214.47;5346679;27;20451;-82
2023/01/14 11:06:15;;;;;;;7.57;2.20;;;;;;;8.32;100.00;100195.28;5346377;27;20058;-81
2023/01/14 11:08:46;;;;;;;5.03;2.00;;;;;;;8.31;100.00;100236.13;5345277;27;20456;-83
2023/01/14 11:11:24;;;;;;;6.13;2.08;;;;;;;8.35;100.00;100192.34;5346864;27;20023;-82
2023/01/14 11:13:56;;;;;;;6.88;1.73;;;;;;;8.37;100.00;100163.78;5340754;27;20044;-83
2023/01/14 11:16:30;;;;;;;4.50;1.83;;;;;;;8.39;100.00;100171.63;5315507;27;20032;-83
2023/01/14 11:19:14;;;;;;;4.88;2.28;;;;;;;8.43;100.00;100160.59;5345572;27;20023;-83
2023/01/14 11:21:48;;;;;;;6.22;1.55;;;;;;;8.43;100.00;100152.63;5345520;27;20048;-82
2023/01/14 11:24:37;;;;;;;3.50;1.65;;;;;;;8.42;100.00;100158.06;5345962;27;20020;-82
2023/01/14 11:27:19;;;;;;;4.03;1.50;;;;;;;8.46;100.00;100154.16;5346112;27;20433;-82
2023/01/14 11:29:57;;;;;;;3.35;1.60;;;;;;;8.46;100.00;100131.06;5342272;27;20024;-82
2023/01/14 11:32:37;;;;;;;6.28;1.83;;;;;;;8.47;100.00;100129.25;5330798;27;20027;-82
2023/01/14 11:35:19;;;;;;;4.15;1.30;;;;;;;8.50;100.00;100116.50;5343915;27;20118;-83
2023/01/14 11:37:53;;;;;;;4.78;1.30;;;;;;;8.48;100.00;100139.72;5348106;27;20028;-83
2023/01/14 11:43:22;;;;;;;5.10;1.70;;;;;;;8.54;100.00;100102.91;5348921;27;20031;-82
2023/01/14 11:46:18;;;;;;;3.72;1.30;;;;;;;8.57;100.00;100102.63;5340676;27;20023;-82
2023/01/14 11:49:02;;;;;;;5.90;1.67;;;;;;;8.57;100.00;100105.28;5330912;27;20495;-82
2023/01/14 11:51:38;;;;;;;4.38;1.45;;;;;;;8.57;100.00;100084.00;5330929;27;20349;-82
2023/01/14 11:54:18;;;;;;;2.65;1.20;;;;;;;8.57;100.00;100098.13;5349669;27;20023;-82
2023/01/14 11:56:50;;;;;;;4.93;1.38;;;;;;;8.59;100.00;100090.00;5349412;27;20364;-82
2023/01/14 11:59:37;;;;;;;3.05;1.50;;;;;;;8.59;100.00;100082.03;5349384;27;20022;-82
2023/01/14 12:02:14;;;;;;;3.17;1.13;;;;;;;8.61;100.00;100088.06;5349611;27;20039;-82
2023/01/14 12:04:59;;;;;;;3.60;1.33;;;;;;;8.63;100.00;100060.34;5349680;27;20106;-82
2023/01/14 12:07:36;;;;;;;3.53;1.00;;;;;;;8.61;100.00;100058.81;5353407;27;20030;-82
2023/01/14 12:10:14;;;;;;;3.17;1.10;;;;;;;8.64;100.00;100067.34;5335688;27;20020;-82
2023/01/14 12:19:34;;;;;;;3.85;1.10;;;;;;;8.66;100.00;100024.63;5347382;27;20045;-82
2023/01/14 12:22:15;;;;;;;4.05;1.40;;;;;;;8.65;100.00;100023.78;5313252;27;20040;-82
2023/01/14 12:25:42;;;;;;;2.58;1.45;;;;;;;8.69;100.00;99998.56;5328142;28;20016;-83
2023/01/14 12:28:37;;;;;;;2.97;1.00;;;;;;;8.72;100.00;99994.78;5259010;28;20029;-83
2023/01/14 12:31:27;;;;;;;2.83;1.08;;;;;;;8.66;100.00;99990.91;5240871;28;20162;-83
2023/01/14 12:34:18;;;;;;;2.88;1.20;;;;;;;8.67;100.00;99981.13;5337962;27;20483;-83
2023/01/14 12:37:22;;;;;;;4.00;1.17;;;;;;;8.73;100.00;99964.56;5327604;28;20027;-84
2023/01/14 12:46:05;;;;;;;2.08;1.17;;;;;;;8.83;100.00;99945.88;5304593;27;20036;-83
2023/01/14 12:48:37;;;;;;;2.30;1.30;;;;;;;8.81;100.00;99908.78;5329194;27;20095;-83